sensor_id;sensor_type;location;lat;lon;timestamp;pressure;altitude;pressure_sealevel;temperature;humidity
49759;BME280;70329;45.524;10.194;2024-02-26T00:01:10;99361.47;;;9.56;100.00
49759;BME280;70329;45.524;10.194;2024-02-26T00:03:36;99363.88;;;9.63;100.00
49759;BME280;70329;45.524;10.194;2024-02-26T00:06:05;99367.78;;;9.57;100.00
49759;BME280;70329;45.524;10.194;2024-02-26T00:08:32;99363.97;;;9.53;100.00
49759;BME280;70329;45.524;10.194;2024-02-26T00:10:58;99355.53;;;9.49;100.00
49759;BME280;70329;45.524;10.194;2024-02-26T00:13:24;99361.03;;;9.44;100.00
49759;BME280;70329;45.524;10.194;2024-02-26T00:15:51;99358.09;;;9.41;100.00
49759;BME280;70329;45.524;10.194;2024-02-26T00:18:17;99352.13;;;9.33;100.00
49759;BME280;70329;45.524;10.194;2024-02-26T00:20:44;99348.81;;;9.36;100.00
49759;BME280;70329;45.524;10.194;2024-02-26T00:23:13;99352.69;;;9.30;100.00
49759;BME280;70329;45.524;10.194;2024-02-26T00:25:40;99350.78;;;9.31;100.00
49759;BME280;70329;45.524;10.194;2024-02-26T00:28:08;99345.31;;;9.31;100.00
49759;BME280;70329;45.524;10.194;2024-02-26T00:30:35;99346.75;;;9.23;100.00
49759;BME280;70329;45.524;10.194;2024-02-26T00:33:01;99347.00;;;9.27;100.00
49759;BME280;70329;45.524;10.194;2024-02-26T00:35:27;99350.88;;;9.21;100.00
49759;BME280;70329;45.524;10.194;2024-02-26T00:37:54;99339.72;;;9.17;100.00
49759;BME280;70329;45.524;10.194;2024-02-26T00:40:22;99341.47;;;9.03;100.00
49759;BME280;70329;45.524;10.194;2024-02-26T00:42:48;99339.78;;;9.07;100.00
49759;BME280;70329;45.524;10.194;2024-02-26T00:45:15;99335.19;;;9.03;100.00
49759;BME280;70329;45.524;10.194;2024-02-26T00:47:41;99337.59;;;9.09;100.00
49759;BME280;70329;45.524;10.194;2024-02-26T00:50:09;99327.00;;;9.03;100.00
49759;BME280;70329;45.524;10.194;2024-02-26T00:52:37;99327.25;;;9.06;100.00
49759;BME280;70329;45.524;10.194;2024-02-26T00:55:05;99316.22;;;9.16;100.00
49759;BME280;70329;45.524;10.194;2024-02-26T00:57:33;99320.09;;;9.10;100.00
49759;BME280;70329;45.524;10.194;2024-02-26T00:59:59;99315.69;;;9.14;100.00
49759;BME280;70329;45.524;10.194;2024-02-26T01:02:26;99310.34;;;9.04;100.00
49759;BME280;70329;45.524;10.194;2024-02-26T01:04:52;99298.63;;;8.99;100.00
49759;BME280;70329;45.524;10.194;2024-02-26T01:07:19;99301.13;;;8.95;100.00
49759;BME280;70329;45.524;10.194;2024-02-26T01:09:45;99296.06;;;9.07;100.00
49759;BME280;70329;45.524;10.194;2024-02-26T01:12:12;99288.50;;;8.99;100.00
49759;BME280;70329;45.524;10.194;2024-02-26T01:14:39;99288.75;;;9.03;100.00
49759;BME280;70329;45.524;10.194;2024-02-26T01:17:06;99282.56;;;8.92;100.00
49759;BME280;70329;45.524;10.194;2024-02-26T01:19:32;99269.69;;;8.98;100.00
49759;BME280;70329;45.524;10.194;2024-02-26T01:22:00;99275.78;;;8.90;100.00
49759;BME280;70329;45.524;10.194;2024-02-26T01:24:26;99267.22;;;8.96;100.00
49759;BME280;70329;45.524;10.194;2024-02-26T01:26:53;99271.91;;;8.91;100.00
49759;BME280;70329;45.524;10.194;2024-02-26T01:29:19;99270.25;;;8.95;100.00
49759;BME280;70329;45.524;10.194;2024-02-26T01:31:47;99270.25;;;8.95;100.00
49759;BME280;70329;45.524;10.194;2024-02-26T01:34:13;99259.22;;;8.76;100.00
49759;BME280;70329;45.524;10.194;2024-02-26T01:36:40;99262.69;;;8.87;100.00
49759;BME280;70329;45.524;10.194;2024-02-26T01:39:07;99253.00;;;8.99;100.00
49759;BME280;70329;45.524;10.194;2024-02-26T01:41:36;99244.66;;;8.86;100.00
49759;BME280;70329;45.524;10.194;2024-02-26T01:44:03;99237.03;;;8.88;100.00
49759;BME280;70329;45.524;10.194;2024-02-26T01:46:29;99232.16;;;8.79;100.00
49759;BME280;70329;45.524;10.194;2024-02-26T01:48:58;99229.28;;;8.66;100.00
49759;BME280;70329;45.524;10.194;2024-02-26T01:51:23;99236.94;;;8.64;100.00
49759;BME280;70329;45.524;10.194;2024-02-26T01:53:51;99233.13;;;8.65;100.00
49759;BME280;70329;45.524;10.194;2024-02-26T01:56:19;99233.91;;;8.65;100.00
49759;BME280;70329;45.524;10.194;2024-02-26T01:58:46;99234.50;;;8.62;100.00
49759;BME280;70329;45.524;10.194;2024-02-26T02:01:13;99238.31;;;8.61;100.00
49759;BME280;70329;45.524;10.194;2024-02-26T02:03:41;99233.44;;;8.58;100.00
49759;BME280;70329;45.524;10.194;2024-02-26T02:06:09;99240.53;;;8.59;100.00
49759;BME280;70329;45.524;10.194;2024-02-26T02:08:36;99235.75;;;8.75;100.00
49759;BME280;70329;45.524;10.194;2024-02-26T02:11:04;99235.19;;;8.78;100.00
49759;BME280;70329;45.524;10.194;2024-02-26T02:13:31;99223.59;;;8.57;100.00
49759;BME280;70329;45.524;10.194;2024-02-26T02:15:57;99223.00;;;8.65;100.00
49759;BME280;70329;45.524;10.194;2024-02-26T02:18:23;99233.34;;;8.68;100.00
49759;BME280;70329;45.524;10.194;2024-02-26T02:20:52;99230.63;;;8.68;100.00
49759;BME280;70329;45.524;10.194;2024-02-26T02:23:21;99225.25;;;8.58;100.00
49759;BME280;70329;45.524;10.194;2024-02-26T02:25:47;99223.25;;;8.69;100.00
49759;BME280;70329;45.524;10.194;2024-02-26T02:28:14;99222.72;;;8.67;100.00
49759;BME280;70329;45.524;10.194;2024-02-26T02:30:40;99216.59;;;8.51;100.00
49759;BME280;70329;45.524;10.194;2024-02-26T02:33:07;99219.19;;;8.66;100.00
49759;BME280;70329;45.524;10.194;2024-02-26T02:35:33;99215.09;;;8.64;100.00
49759;BME280;70329;45.524;10.194;2024-02-26T02:38:01;99217.25;;;8.67;100.00
49759;BME280;70329;45.524;10.194;2024-02-26T02:40:27;99204.75;;;8.61;100.00
49759;BME280;70329;45.524;10.194;2024-02-26T02:42:54;99203.72;;;8.57;100.00
49759;BME280;70329;45.524;10.194;2024-02-26T02:45:20;99206.97;;;8.59;100.00
49759;BME280;70329;45.524;10.194;2024-02-26T02:47:47;99200.38;;;8.65;100.00
49759;BME280;70329;45.524;10.194;2024-02-26T02:50:13;99199.03;;;8.57;100.00
49759;BME280;70329;45.524;10.194;2024-02-26T02:52:44;99194.66;;;8.61;100.00
49759;BME280;70329;45.524;10.194;2024-02-26T02:55:13;99190.22;;;8.70;100.00
49759;BME280;70329;45.524;10.194;2024-02-26T02:57:39;99192.19;;;8.65;100.00
49759;BME280;70329;45.524;10.194;2024-02-26T03:00:08;99183.53;;;8.53;100.00
49759;BME280;70329;45.524;10.194;2024-02-26T03:02:34;99189.19;;;8.61;100.00
49759;BME280;70329;45.524;10.194;2024-02-26T03:05:01;99189.78;;;8.58;100.00
49759;BME280;70329;45.524;10.194;2024-02-26T03:07:28;99187.25;;;8.67;100.00
49759;BME280;70329;45.524;10.194;2024-02-26T03:09:54;99187.28;;;8.62;100.00
49759;BME280;70329;45.524;10.194;2024-02-26T03:12:22;99179.63;;;8.64;100.00
49759;BME280;70329;45.524;10.194;2024-02-26T03:14:49;99181.34;;;8.55;100.00
49759;BME280;70329;45.524;10.194;2024-02-26T03:17:17;99180.50;;;8.59;100.00
49759;BME280;70329;45.524;10.194;2024-02-26T03:19:44;99178.81;;;8.63;100.00
49759;BME280;70329;45.524;10.194;2024-02-26T03:22:11;99175.81;;;8.60;100.00
49759;BME280;70329;45.524;10.194;2024-02-26T03:24:38;99175.88;;;8.55;100.00
49759;BME280;70329;45.524;10.194;2024-02-26T03:27:04;99175.59;;;8.56;100.00
49759;BME280;70329;45.524;10.194;2024-02-26T03:29:35;99180.50;;;8.59;100.00
49759;BME280;70329;45.524;10.194;2024-02-26T03:32:02;99175.25;;;8.63;100.00
49759;BME280;70329;45.524;10.194;2024-02-26T03:34:30;99176.06;;;8.63;100.00
49759;BME280;70329;45.524;10.194;2024-02-26T03:36:56;99172.53;;;8.63;100.00
49759;BME280;70329;45.524;10.194;2024-02-26T03:39:23;99173.69;;;8.57;100.00
49759;BME280;70329;45.524;10.194;2024-02-26T03:41:49;99175.59;;;8.56;100.00
49759;BME280;70329;45.524;10.194;2024-02-26T03:44:15;99177.47;;;8.61;100.00
49759;BME280;70329;45.524;10.194;2024-02-26T03:46:43;99171.19;;;8.60;100.00
49759;BME280;70329;45.524;10.194;2024-02-26T03:49:11;99172.31;;;8.59;100.00
49759;BME280;70329;45.524;10.194;2024-02-26T03:51:39;99168.81;;;8.54;100.00
49759;BME280;70329;45.524;10.194;2024-02-26T03:54:07;99167.13;;;8.58;100.00
49759;BME280;70329;45.524;10.194;2024-02-26T03:56:35;99162.72;;;8.62;100.00
49759;BME280;70329;45.524;10.194;2024-02-26T03:59:01;99146.94;;;8.59;100.00
49759;BME280;70329;45.524;10.194;2024-02-26T04:01:28;99146.47;;;8.47;100.00
49759;BME280;70329;45.524;10.194;2024-02-26T04:03:55;99144.50;;;8.52;100.00
49759;BME280;70329;45.524;10.194;2024-02-26T04:06:22;99143.13;;;8.55;100.00
49759;BME280;70329;45.524;10.194;2024-02-26T04:08:48;99145.38;;;8.48;100.00
49759;BME280;70329;45.524;10.194;2024-02-26T04:11:15;99150.41;;;8.36;100.00
49759;BME280;70329;45.524;10.194;2024-02-26T04:13:44;99150.44;;;8.31;100.00
49759;BME280;70329;45.524;10.194;2024-02-26T04:16:14;99146.56;;;8.37;100.00
49759;BME280;70329;45.524;10.194;2024-02-26T04:18:41;99142.91;;;8.51;100.00
49759;BME280;70329;45.524;10.194;2024-02-26T04:21:10;99140.75;;;8.48;100.00
49759;BME280;70329;45.524;10.194;2024-02-26T04:23:36;99142.84;;;8.56;100.00
49759;BME280;70329;45.524;10.194;2024-02-26T04:26:03;99143.19;;;8.50;100.00
49759;BME280;70329;45.524;10.194;2024-02-26T04:28:31;99155.59;;;8.37;100.00
49759;BME280;70329;45.524;10.194;2024-02-26T04:30:57;99147.16;;;8.34;100.00
49759;BME280;70329;45.524;10.194;2024-02-26T04:33:24;99140.00;;;8.38;100.00
49759;BME280;70329;45.524;10.194;2024-02-26T04:35:50;99138.91;;;8.39;100.00
49759;BME280;70329;45.524;10.194;2024-02-26T04:38:18;99142.16;;;8.41;100.00
49759;BME280;70329;45.524;10.194;2024-02-26T04:40:44;99136.69;;;8.41;100.00
49759;BME280;70329;45.524;10.194;2024-02-26T04:43:12;99144.41;;;8.34;100.00
49759;BME280;70329;45.524;10.194;2024-02-26T04:45:39;99143.34;;;8.35;100.00
49759;BME280;70329;45.524;10.194;2024-02-26T04:48:07;99141.06;;;8.42;100.00
49759;BME280;70329;45.524;10.194;2024-02-26T04:50:37;99142.72;;;8.38;100.00
49759;BME280;70329;45.524;10.194;2024-02-26T04:53:05;99132.88;;;8.42;100.00
49759;BME280;70329;45.524;10.194;2024-02-26T04:55:34;99136.75;;;8.36;100.00
49759;BME280;70329;45.524;10.194;2024-02-26T04:58:01;99137.31;;;8.33;100.00
49759;BME280;70329;45.524;10.194;2024-02-26T05:00:29;99138.88;;;8.44;100.00
49759;BME280;70329;45.524;10.194;2024-02-26T05:02:57;99137.81;;;8.40;100.00
49759;BME280;70329;45.524;10.194;2024-02-26T05:05:24;99142.72;;;8.43;100.00
49759;BME280;70329;45.524;10.194;2024-02-26T05:07:52;99140.25;;;8.41;100.00
49759;BME280;70329;45.524;10.194;2024-02-26T05:10:20;99139.72;;;8.39;100.00
49759;BME280;70329;45.524;10.194;2024-02-26T05:12:49;99144.66;;;8.37;100.00
49759;BME280;70329;45.524;10.194;2024-02-26T05:15:16;99164.34;;;8.34;100.00
49759;BME280;70329;45.524;10.194;2024-02-26T05:17:44;99162.75;;;8.28;100.00
49759;BME280;70329;45.524;10.194;2024-02-26T05:20:12;99181.28;;;8.26;100.00
49759;BME280;70329;45.524;10.194;2024-02-26T05:22:40;99163.56;;;8.29;100.00
49759;BME280;70329;45.524;10.194;2024-02-26T05:25:08;99173.91;;;8.32;100.00
49759;BME280;70329;45.524;10.194;2024-02-26T05:27:36;99179.72;;;8.15;100.00
49759;BME280;70329;45.524;10.194;2024-02-26T05:30:06;99173.41;;;8.19;100.00
49759;BME280;70329;45.524;10.194;2024-02-26T05:32:34;99176.91;;;8.25;100.00
49759;BME280;70329;45.524;10.194;2024-02-26T05:35:03;99181.56;;;8.25;100.00
49759;BME280;70329;45.524;10.194;2024-02-26T05:37:30;99193.00;;;8.32;100.00
49759;BME280;70329;45.524;10.194;2024-02-26T05:39:58;99190.53;;;8.30;100.00
49759;BME280;70329;45.524;10.194;2024-02-26T05:42:26;99196.88;;;8.20;100.00
49759;BME280;70329;45.524;10.194;2024-02-26T05:44:53;99207.00;;;8.15;100.00
49759;BME280;70329;45.524;10.194;2024-02-26T05:47:22;99209.44;;;8.16;100.00
49759;BME280;70329;45.524;10.194;2024-02-26T05:49:50;99207.00;;;8.10;100.00
49759;BME280;70329;45.524;10.194;2024-02-26T05:52:18;99202.09;;;8.12;100.00
49759;BME280;70329;45.524;10.194;2024-02-26T05:54:45;99205.91;;;8.11;100.00
49759;BME280;70329;45.524;10.194;2024-02-26T05:57:13;99207.00;;;8.15;100.00
49759;BME280;70329;45.524;10.194;2024-02-26T05:59:40;99205.06;;;8.15;100.00
49759;BME280;70329;45.524;10.194;2024-02-26T06:02:10;99207.00;;;8.15;100.00
49759;BME280;70329;45.524;10.194;2024-02-26T06:04:40;99208.09;;;8.14;100.00
49759;BME280;70329;45.524;10.194;2024-02-26T06:07:10;99218.47;;;8.12;100.00
49759;BME280;70329;45.524;10.194;2024-02-26T06:09:37;99219.84;;;8.09;100.00
49759;BME280;70329;45.524;10.194;2024-02-26T06:12:06;99220.97;;;8.03;100.00
49759;BME280;70329;45.524;10.194;2024-02-26T06:14:34;99232.69;;;8.04;100.00
49759;BME280;70329;45.524;10.194;2024-02-26T06:17:01;99236.47;;;8.08;100.00
49759;BME280;70329;45.524;10.194;2024-02-26T06:19:27;99235.09;;;8.10;100.00
49759;BME280;70329;45.524;10.194;2024-02-26T06:21:55;99235.09;;;8.10;100.00
49759;BME280;70329;45.524;10.194;2024-02-26T06:24:23;99237.97;;;7.85;100.00
49759;BME280;70329;45.524;10.194;2024-02-26T06:26:49;99248.31;;;7.88;100.00
49759;BME280;70329;45.524;10.194;2024-02-26T06:29:17;99241.44;;;7.96;100.00
49759;BME280;70329;45.524;10.194;2024-02-26T06:31:45;99263.88;;;7.83;100.00
49759;BME280;70329;45.524;10.194;2024-02-26T06:34:14;99253.25;;;7.76;100.00
49759;BME280;70329;45.524;10.194;2024-02-26T06:36:44;99263.63;;;7.84;100.00
49759;BME280;70329;45.524;10.194;2024-02-26T06:39:12;99256.97;;;8.00;100.00
49759;BME280;70329;45.524;10.194;2024-02-26T06:41:40;99269.84;;;7.85;100.00
49759;BME280;70329;45.524;10.194;2024-02-26T06:44:06;99271.75;;;7.89;100.00
49759;BME280;70329;45.524;10.194;2024-02-26T06:46:33;99281.06;;;7.78;100.00
49759;BME280;70329;45.524;10.194;2024-02-26T06:48:59;99274.22;;;7.86;100.00
49759;BME280;70329;45.524;10.194;2024-02-26T06:51:26;99281.31;;;7.87;100.00
49759;BME280;70329;45.524;10.194;2024-02-26T06:53:52;99278.56;;;7.92;100.00
49759;BME280;70329;45.524;10.194;2024-02-26T06:56:20;99276.09;;;7.90;100.00
49759;BME280;70329;45.524;10.194;2024-02-26T06:58:46;99274.84;;;7.68;100.00
49759;BME280;70329;45.524;10.194;2024-02-26T07:01:13;99278.13;;;7.65;100.00
49759;BME280;70329;45.524;10.194;2024-02-26T07:03:40;99273.47;;;7.75;100.00
49759;BME280;70329;45.524;10.194;2024-02-26T07:06:06;99276.44;;;7.79;100.00
49759;BME280;70329;45.524;10.194;2024-02-26T07:08:33;99263.63;;;7.84;100.00
49759;BME280;70329;45.524;10.194;2024-02-26T07:11:00;99257.53;;;7.97;100.00
49759;BME280;70329;45.524;10.194;2024-02-26T07:13:28;99254.63;;;7.84;100.00
49759;BME280;70329;45.524;10.194;2024-02-26T07:15:54;99245.03;;;7.91;100.00
49759;BME280;70329;45.524;10.194;2024-02-26T07:18:20;99245.00;;;7.96;100.00
49759;BME280;70329;45.524;10.194;2024-02-26T07:20:47;99247.81;;;7.81;100.00
49759;BME280;70329;45.524;10.194;2024-02-26T07:23:13;99247.81;;;7.81;100.00
49759;BME280;70329;45.524;10.194;2024-02-26T07:25:40;99246.66;;;7.92;100.00
49759;BME280;70329;45.524;10.194;2024-02-26T07:28:07;99246.97;;;7.86;100.00
49759;BME280;70329;45.524;10.194;2024-02-26T07:30:35;99254.09;;;7.77;100.00
49759;BME280;70329;45.524;10.194;2024-02-26T07:33:01;99257.56;;;7.92;100.00
49759;BME280;70329;45.524;10.194;2024-02-26T07:35:28;99249.38;;;7.97;100.00
49759;BME280;70329;45.524;10.194;2024-02-26T07:37:54;99239.84;;;7.95;100.00
49759;BME280;70329;45.524;10.194;2024-02-26T07:40:20;99242.50;;;8.05;100.00
49759;BME280;70329;45.524;10.194;2024-02-26T07:42:47;99237.81;;;8.10;100.00
49759;BME280;70329;45.524;10.194;2024-02-26T07:45:15;99234.97;;;7.87;100.00
49759;BME280;70329;45.524;10.194;2024-02-26T07:47:47;99249.69;;;7.86;100.00
49759;BME280;70329;45.524;10.194;2024-02-26T07:50:18;99239.84;;;7.95;100.00
49759;BME280;70329;45.524;10.194;2024-02-26T07:52:48;99246.69;;;7.82;100.00
49759;BME280;70329;45.524;10.194;2024-02-26T07:55:17;99238.47;;;7.97;100.00
49759;BME280;70329;45.524;10.194;2024-02-26T07:57:44;99242.84;;;7.88;100.00
49759;BME280;70329;45.524;10.194;2024-02-26T08:00:11;99243.31;;;8.05;100.00
49759;BME280;70329;45.524;10.194;2024-02-26T08:02:41;99240.09;;;7.98;100.00
49759;BME280;70329;45.524;10.194;2024-02-26T08:05:09;99248.72;;;8.10;100.00
49759;BME280;70329;45.524;10.194;2024-02-26T08:07:36;99254.72;;;8.12;100.00
49759;BME280;70329;45.524;10.194;2024-02-26T08:10:02;99257.19;;;8.14;100.00
49759;BME280;70329;45.524;10.194;2024-02-26T08:12:29;99261.81;;;8.13;100.00
49759;BME280;70329;45.524;10.194;2024-02-26T08:14:57;99268.31;;;8.28;100.00
49759;BME280;70329;45.524;10.194;2024-02-26T08:17:27;99263.59;;;8.38;100.00
49759;BME280;70329;45.524;10.194;2024-02-26T08:19:55;99256.75;;;8.46;100.00
49759;BME280;70329;45.524;10.194;2024-02-26T08:22:25;99260.47;;;8.55;100.00
49759;BME280;70329;45.524;10.194;2024-02-26T08:24:51;99258.28;;;8.57;100.00
49759;BME280;70329;45.524;10.194;2024-02-26T08:27:18;99248.47;;;8.56;100.00
49759;BME280;70329;45.524;10.194;2024-02-26T08:29:44;99244.66;;;8.52;100.00
49759;BME280;70329;45.524;10.194;2024-02-26T08:32:12;99260.72;;;8.58;100.00
49759;BME280;70329;45.524;10.194;2024-02-26T08:34:38;99258.53;;;8.60;100.00
49759;BME280;70329;45.524;10.194;2024-02-26T08:37:05;99259.34;;;8.61;100.00
49759;BME280;70329;45.524;10.194;2024-02-26T08:39:34;99258.56;;;8.55;100.00
49759;BME280;70329;45.524;10.194;2024-02-26T08:42:02;99252.59;;;8.53;100.00
49759;BME280;70329;45.524;10.194;2024-02-26T08:44:29;99266.00;;;8.45;100.00
49759;BME280;70329;45.524;10.194;2024-02-26T08:46:56;99258.09;;;8.43;100.00
49759;BME280;70329;45.524;10.194;2024-02-26T08:49:23;99249.69;;;8.40;100.00
49759;BME280;70329;45.524;10.194;2024-02-26T08:51:51;99230.63;;;8.35;100.00
49759;BME280;70329;45.524;10.194;2024-02-26T08:54:19;99238.81;;;8.30;100.00
49759;BME280;70329;45.524;10.194;2024-02-26T08:56:48;99250.59;;;8.20;100.00
49759;BME280;70329;45.524;10.194;2024-02-26T08:59:15;99240.06;;;8.03;100.00
49759;BME280;70329;45.524;10.194;2024-02-26T09:01:47;99237.38;;;7.98;100.00
49759;BME280;70329;45.524;10.194;2024-02-26T09:04:14;99231.25;;;8.16;100.00
49759;BME280;70329;45.524;10.194;2024-02-26T09:06:42;99235.00;;;8.31;100.00
49759;BME280;70329;45.524;10.194;2024-02-26T09:09:08;99232.72;;;8.48;100.00
49759;BME280;70329;45.524;10.194;2024-02-26T09:11:39;99229.38;;;8.56;100.00
49759;BME280;70329;45.524;10.194;2024-02-26T09:14:12;99218.50;;;8.79;100.00
49759;BME280;70329;45.524;10.194;2024-02-26T09:16:47;99213.88;;;8.80;100.00
49759;BME280;70329;45.524;10.194;2024-02-26T09:19:13;99210.94;;;9.00;100.00
49759;BME280;70329;45.524;10.194;2024-02-26T09:21:42;99206.94;;;9.16;100.00
49759;BME280;70329;45.524;10.194;2024-02-26T09:24:08;99213.22;;;9.17;100.00
49759;BME280;70329;45.524;10.194;2024-02-26T09:26:36;99203.06;;;9.22;100.00
49759;BME280;70329;45.524;10.194;2024-02-26T09:29:02;99202.50;;;9.25;100.00
49759;BME280;70329;45.524;10.194;2024-02-26T09:31:32;99205.16;;;9.30;100.00
49759;BME280;70329;45.524;10.194;2024-02-26T09:34:00;99210.38;;;9.27;100.00
49759;BME280;70329;45.524;10.194;2024-02-26T09:36:27;99206.84;;;9.26;100.00
49759;BME280;70329;45.524;10.194;2024-02-26T09:38:55;99211.13;;;9.09;100.00
49759;BME280;70329;45.524;10.194;2024-02-26T09:41:22;99211.47;;;9.02;100.00
49759;BME280;70329;45.524;10.194;2024-02-26T09:43:48;99216.53;;;8.85;100.00
49759;BME280;70329;45.524;10.194;2024-02-26T09:46:17;99218.50;;;8.79;100.00
49759;BME280;70329;45.524;10.194;2024-02-26T09:48:46;99212.84;;;8.71;100.00
49759;BME280;70329;45.524;10.194;2024-02-26T09:51:13;99216.41;;;8.71;100.00
49759;BME280;70329;45.524;10.194;2024-02-26T09:53:41;99216.97;;;8.68;100.00
49759;BME280;70329;45.524;10.194;2024-02-26T09:56:10;99215.88;;;8.69;100.00
49759;BME280;70329;45.524;10.194;2024-02-26T09:58:37;99214.22;;;8.68;100.00
49759;BME280;70329;45.524;10.194;2024-02-26T10:01:05;99212.94;;;8.61;100.00
49759;BME280;70329;45.524;10.194;2024-02-26T10:03:38;99218.16;;;8.57;100.00
49759;BME280;70329;45.524;10.194;2024-02-26T10:06:06;99214.63;;;8.57;100.00
49759;BME280;70329;45.524;10.194;2024-02-26T10:08:33;99220.34;;;8.55;100.00
49759;BME280;70329;45.524;10.194;2024-02-26T10:11:03;99219.84;;;8.53;100.00
49759;BME280;70329;45.524;10.194;2024-02-26T10:13:31;99224.44;;;8.58;100.00
49759;BME280;70329;45.524;10.194;2024-02-26T10:15:57;99218.41;;;8.61;100.00
49759;BME280;70329;45.524;10.194;2024-02-26T10:18:26;99217.00;;;8.63;100.00
49759;BME280;70329;45.524;10.194;2024-02-26T10:20:58;99220.25;;;8.70;100.00
49759;BME280;70329;45.524;10.194;2024-02-26T10:23:27;99216.69;;;8.70;100.00
49759;BME280;70329;45.524;10.194;2024-02-26T10:25:54;99218.84;;;8.73;100.00
49759;BME280;70329;45.524;10.194;2024-02-26T10:28:21;99218.84;;;8.73;100.00
49759;BME280;70329;45.524;10.194;2024-02-26T10:30:47;99220.09;;;8.86;100.00
49759;BME280;70329;45.524;10.194;2024-02-26T10:33:14;99220.34;;;8.89;100.00
49759;BME280;70329;45.524;10.194;2024-02-26T10:35:45;99224.66;;;8.95;100.00
49759;BME280;70329;45.524;10.194;2024-02-26T10:38:11;99220.81;;;8.96;100.00
49759;BME280;70329;45.524;10.194;2024-02-26T10:40:40;99227.66;;;8.94;100.00
49759;BME280;70329;45.524;10.194;2024-02-26T10:43:06;99224.09;;;8.98;100.00
49759;BME280;70329;45.524;10.194;2024-02-26T10:45:33;99232.91;;;8.90;100.00
49759;BME280;70329;45.524;10.194;2024-02-26T10:48:00;99228.47;;;8.94;100.00
49759;BME280;70329;45.524;10.194;2024-02-26T10:50:26;99223.84;;;8.95;100.00
49759;BME280;70329;45.524;10.194;2024-02-26T10:52:52;99224.34;;;8.97;100.00
49759;BME280;70329;45.524;10.194;2024-02-26T10:55:21;99220.28;;;8.94;100.00
49759;BME280;70329;45.524;10.194;2024-02-26T10:57:50;99205.88;;;8.89;100.00
49759;BME280;70329;45.524;10.194;2024-02-26T11:00:18;99213.16;;;8.98;100.00
49759;BME280;70329;45.524;10.194;2024-02-26T11:02:45;99201.94;;;9.00;100.00
49759;BME280;70329;45.524;10.194;2024-02-26T11:05:12;99211.19;;;9.04;100.00
49759;BME280;70329;45.524;10.194;2024-02-26T11:07:39;99206.69;;;8.89;100.00
49759;BME280;70329;45.524;10.194;2024-02-26T11:10:07;99205.63;;;8.85;100.00
49759;BME280;70329;45.524;10.194;2024-02-26T11:12:36;99204.78;;;8.90;100.00
49759;BME280;70329;45.524;10.194;2024-02-26T11:15:05;99196.34;;;8.86;100.00
49759;BME280;70329;45.524;10.194;2024-02-26T11:17:32;99196.59;;;8.90;100.00
49759;BME280;70329;45.524;10.194;2024-02-26T11:20:01;99193.03;;;8.89;100.00
49759;BME280;70329;45.524;10.194;2024-02-26T11:22:29;99191.13;;;8.90;100.00
49759;BME280;70329;45.524;10.194;2024-02-26T11:24:56;99195.00;;;8.84;100.00
49759;BME280;70329;45.524;10.194;2024-02-26T11:27:26;99187.13;;;8.77;100.00
49759;BME280;70329;45.524;10.194;2024-02-26T11:29:56;99184.38;;;8.82;100.00
49759;BME280;70329;45.524;10.194;2024-02-26T11:32:26;99188.25;;;8.76;100.00
49759;BME280;70329;45.524;10.194;2024-02-26T11:34:53;99184.50;;;8.67;100.00
49759;BME280;70329;45.524;10.194;2024-02-26T11:37:20;99182.81;;;8.71;100.00
49759;BME280;70329;45.524;10.194;2024-02-26T11:39:47;99179.25;;;8.75;100.00
49759;BME280;70329;45.524;10.194;2024-02-26T11:42:15;99183.63;;;8.71;100.00
49759;BME280;70329;45.524;10.194;2024-02-26T11:44:43;99171.13;;;8.70;100.00
49759;BME280;70329;45.524;10.194;2024-02-26T11:47:11;99164.25;;;8.73;100.00
49759;BME280;70329;45.524;10.194;2024-02-26T11:49:41;99164.78;;;8.75;100.00
49759;BME280;70329;45.524;10.194;2024-02-26T11:52:08;99153.84;;;8.75;100.00
49759;BME280;70329;45.524;10.194;2024-02-26T11:54:39;99148.84;;;8.58;100.00
49759;BME280;70329;45.524;10.194;2024-02-26T11:57:20;99154.03;;;8.55;100.00
49759;BME280;70329;45.524;10.194;2024-02-26T11:59:48;99149.72;;;8.54;100.00
49759;BME280;70329;45.524;10.194;2024-02-26T12:05:06;99148.06;;;8.53;100.00
49759;BME280;70329;45.524;10.194;2024-02-26T12:07:35;99153.53;;;8.53;100.00
49759;BME280;70329;45.524;10.194;2024-02-26T12:10:23;99170.78;;;8.43;100.00
49759;BME280;70329;45.524;10.194;2024-02-26T12:12:55;99172.16;;;8.41;100.00
49759;BME280;70329;45.524;10.194;2024-02-26T12:15:30;99186.94;;;8.40;100.00
49759;BME280;70329;45.524;10.194;2024-02-26T12:18:00;99180.69;;;8.34;100.00
49759;BME280;70329;45.524;10.194;2024-02-26T12:20:32;99175.25;;;8.29;100.00
49759;BME280;70329;45.524;10.194;2024-02-26T12:23:01;99180.72;;;8.29;100.00
49759;BME280;70329;45.524;10.194;2024-02-26T12:25:30;99182.94;;;8.27;100.00
49759;BME280;70329;45.524;10.194;2024-02-26T12:27:57;99175.00;;;8.26;100.00
49759;BME280;70329;45.524;10.194;2024-02-26T12:30:27;99177.47;;;8.27;100.00
49759;BME280;70329;45.524;10.194;2024-02-26T12:32:58;99167.38;;;8.23;100.00
49759;BME280;70329;45.524;10.194;2024-02-26T12:35:27;99153.75;;;8.23;100.00
49759;BME280;70329;45.524;10.194;2024-02-26T12:37:56;99163.38;;;8.15;100.00
49759;BME280;70329;45.524;10.194;2024-02-26T12:40:25;99153.50;;;8.19;100.00
49759;BME280;70329;45.524;10.194;2024-02-26T12:42:54;99139.28;;;8.22;100.00
49759;BME280;70329;45.524;10.194;2024-02-26T12:45:22;99139.94;;;8.09;100.00
49759;BME280;70329;45.524;10.194;2024-02-26T12:47:52;99126.31;;;8.09;100.00
49759;BME280;70329;45.524;10.194;2024-02-26T12:50:20;99112.91;;;8.12;100.00
49759;BME280;70329;45.524;10.194;2024-02-26T12:52:49;99113.19;;;8.11;100.00
49759;BME280;70329;45.524;10.194;2024-02-26T12:55:22;99125.25;;;8.05;100.00